Time;durP1;ratioP1;P1;durP2;ratioP2;P2;SDS_P1;SDS_P2;PMS_P1;PMS_P2;Temp;Humidity;BMP_temperature;BMP_pressure;BME280_temperature;BME280_humidity;BME280_pressure;Samples;Min_cycle;Max_cycle;Signal;HPM_P1;HPM_P2
2022/08/15 00:00:30;;;;;;;4.95;4.55;;;26.80;64.80;;;;;;5082743;28;44098;-62
2022/08/15 00:03:01;;;;;;;5.00;4.60;;;26.80;64.70;;;;;;5083816;27;43951;-62
2022/08/15 00:05:37;;;;;;;4.72;4.43;;;26.80;64.80;;;;;;5083631;28;43472;-62
2022/08/15 00:08:08;;;;;;;4.78;4.47;;;26.80;64.80;;;;;;5083300;27;43549;-62
2022/08/15 00:11:01;;;;;;;5.10;4.70;;;26.80;64.80;;;;;;5083672;27;44815;-62
2022/08/15 00:13:50;;;;;;;;;;;26.80;64.80;;;;;;5082625;27;43421;-62
2022/08/15 00:16:33;;;;;;;4.70;4.40;;;26.80;64.80;;;;;;5076656;28;44164;-63
2022/08/15 00:19:08;;;;;;;4.88;4.47;;;26.70;64.70;;;;;;5083809;27;43453;-62
2022/08/15 00:21:41;;;;;;;4.90;4.50;;;26.70;64.80;;;;;;5069167;27;44760;-62
2022/08/15 00:24:08;;;;;;;4.97;4.68;;;26.70;64.70;;;;;;5073332;28;43458;-62
2022/08/15 00:26:48;;;;;;;5.20;4.80;;;26.70;64.70;;;;;;5083463;27;43441;-62
2022/08/15 00:29:26;;;;;;;4.90;4.50;;;26.70;64.70;;;;;;5083227;28;43561;-62
2022/08/15 00:32:08;;;;;;;5.22;4.82;;;26.70;64.70;;;;;;5077551;27;44047;-62
2022/08/15 00:34:56;;;;;;;5.32;4.93;;;26.70;64.70;;;;;;5082810;27;43756;-63
2022/08/15 00:37:23;;;;;;;5.20;4.80;;;26.70;64.70;;;;;;5083234;28;43401;-62
2022/08/15 00:39:52;;;;;;;4.90;4.60;;;26.70;64.70;;;;;;5082210;28;43621;-62
2022/08/15 00:42:24;;;;;;;5.00;4.60;;;26.70;64.70;;;;;;5082535;27;44710;-62
2022/08/15 00:44:56;;;;;;;4.82;4.53;;;26.70;64.70;;;;;;5083163;28;43659;-62
2022/08/15 00:47:40;;;;;;;5.20;4.80;;;26.70;64.70;;;;;;5082467;28;43526;-62
2022/08/15 00:50:12;;;;;;;5.00;4.60;;;26.70;64.70;;;;;;5081092;28;43517;-62
2022/08/15 00:53:06;;;;;;;4.70;4.40;;;26.70;64.70;;;;;;5076157;28;44954;-62
2022/08/15 00:55:39;;;;;;;5.72;5.18;;;26.70;64.70;;;;;;5076789;28;44033;-62
2022/08/15 00:58:09;;;;;;;4.82;4.43;;;26.60;64.60;;;;;;5072486;27;43519;-62
2022/08/15 01:00:56;;;;;;;4.90;4.50;;;26.60;64.60;;;;;;5097627;27;43470;-62
2022/08/15 01:03:31;;;;;;;5.00;4.60;;;26.70;64.70;;;;;;5073816;28;43880;-63
2022/08/15 01:06:21;;;;;;;5.07;4.68;;;26.70;64.70;;;;;;5074049;28;43532;-63
2022/08/15 01:09:01;;;;;;;5.32;4.93;;;26.60;64.60;;;;;;5081933;27;43457;-62
2022/08/15 01:12:04;;;;;;;5.53;5.13;;;26.60;64.60;;;;;;5082782;28;43932;-62
2022/08/15 01:14:32;;;;;;;5.03;4.63;;;26.60;64.60;;;;;;5081526;27;44775;-62
2022/08/15 01:17:20;;;;;;;5.22;4.82;;;26.60;64.60;;;;;;5068777;28;43454;-62
2022/08/15 01:20:13;;;;;;;5.20;4.80;;;26.60;64.60;;;;;;5082044;27;44248;-62
2022/08/15 01:23:28;;;;;;;5.28;4.97;;;26.60;64.60;;;;;;5097252;27;43577;-62
2022/08/15 01:26:16;;;;;;;5.07;4.68;;;26.60;64.60;;;;;;5068506;28;43965;-62
2022/08/15 01:29:03;;;;;;;5.28;4.88;;;26.60;64.60;;;;;;5082991;27;43481;-61
2022/08/15 01:31:31;;;;;;;5.25;4.85;;;26.60;64.60;;;;;;5089846;27;43963;-63
2022/08/15 01:34:01;;;;;;;5.20;4.80;;;26.60;64.50;;;;;;5080970;27;43490;-62
2022/08/15 01:36:39;;;;;;;5.38;4.95;;;26.60;64.50;;;;;;5066037;28;44045;-62
2022/08/15 01:39:14;;;;;;;5.28;4.88;;;26.60;64.50;;;;;;5081501;28;43403;-62
2022/08/15 01:42:18;;;;;;;5.82;5.40;;;26.60;64.50;;;;;;5081186;28;43468;-63
2022/08/15 01:45:06;;;;;;;5.07;4.68;;;26.60;64.40;;;;;;5069333;28;43427;-62
2022/08/15 01:48:11;;;;;;;5.35;4.95;;;26.60;64.40;;;;;;5072942;28;44069;-62
2022/08/15 01:51:02;;;;;;;5.30;4.90;;;26.60;64.40;;;;;;5048345;28;43811;-62
2022/08/15 01:53:47;;;;;;;5.50;5.10;;;26.60;64.40;;;;;;5080634;28;43511;-62
2022/08/15 01:56:36;;;;;;;5.60;5.20;;;26.50;64.40;;;;;;5082251;27;43387;-62
2022/08/15 01:59:16;;;;;;;5.45;5.05;;;26.50;64.40;;;;;;5079663;28;44068;-62
2022/08/15 02:01:55;;;;;;;5.70;5.30;;;26.50;64.40;;;;;;5078216;28;43505;-62
2022/08/15 02:04:29;;;;;;;5.90;5.40;;;26.50;64.40;;;;;;5067863;28;43403;-62
2022/08/15 02:06:59;;;;;;;5.38;5.07;;;26.50;64.40;;;;;;5073307;28;43588;-62
2022/08/15 02:09:29;;;;;;;4.78;4.47;;;26.50;64.40;;;;;;5075915;28;43978;-62
2022/08/15 02:12:24;;;;;;;5.55;5.15;;;26.50;64.40;;;;;;5079254;28;43659;-62
2022/08/15 02:15:20;;;;;;;5.25;4.93;;;26.50;64.40;;;;;;5079054;28;43481;-62
2022/08/15 02:17:51;;;;;;;5.70;5.30;;;26.50;64.40;;;;;;5074470;28;43554;-62
2022/08/15 02:20:23;;;;;;;5.37;4.97;;;26.50;64.40;;;;;;5079547;28;44957;-62
2022/08/15 02:22:54;;;;;;;5.65;5.25;;;26.50;64.40;;;;;;5080600;28;43967;-62
2022/08/15 02:25:23;;;;;;;5.40;5.10;;;26.40;64.30;;;;;;5085076;27;43347;-62
2022/08/15 02:27:53;;;;;;;5.75;5.35;;;26.50;64.40;;;;;;5079431;28;43470;-62
2022/08/15 02:30:26;;;;;;;5.70;5.30;;;26.40;64.30;;;;;;5080410;28;43756;-62
2022/08/15 02:33:03;;;;;;;5.75;5.35;;;26.40;64.30;;;;;;5073797;27;43812;-62
2022/08/15 02:35:37;;;;;;;5.63;5.22;;;26.40;64.30;;;;;;5080169;27;43493;-62
2022/08/15 02:38:09;;;;;;;5.90;5.50;;;26.40;64.30;;;;;;5083547;27;43516;-62
2022/08/15 02:40:50;;;;;;;5.50;5.10;;;26.40;64.30;;;;;;5075465;28;44910;-62
2022/08/15 02:43:21;;;;;;;5.57;5.18;;;26.40;64.30;;;;;;5074024;28;44119;-62
2022/08/15 02:45:50;;;;;;;5.90;5.40;;;26.40;64.30;;;;;;5091280;27;43472;-63
2022/08/15 02:48:44;;;;;;;5.45;5.05;;;26.40;64.40;;;;;;5083256;28;43531;-62
2022/08/15 02:51:29;;;;;;;5.53;5.13;;;26.40;64.40;;;;;;5081999;28;44857;-62
2022/08/15 02:54:17;;;;;;;5.70;5.30;;;26.30;64.30;;;;;;5084318;27;44136;-62
2022/08/15 02:57:08;;;;;;;5.95;5.45;;;26.40;64.30;;;;;;5079715;28;43463;-62
2022/08/15 02:59:40;;;;;;;5.45;5.05;;;26.40;64.40;;;;;;5078061;28;43463;-62
2022/08/15 03:02:15;;;;;;;5.32;5.03;;;26.40;64.40;;;;;;5077213;28;45013;-62
2022/08/15 03:05:02;;;;;;;5.82;5.43;;;26.30;64.30;;;;;;5082856;28;43416;-62
2022/08/15 03:07:34;;;;;;;5.90;5.50;;;26.30;64.30;;;;;;5077519;28;43386;-63
2022/08/15 03:10:03;;;;;;;5.85;5.45;;;26.30;64.30;;;;;;5090428;27;43524;-62
2022/08/15 03:12:54;;;;;;;5.88;5.47;;;26.30;64.40;;;;;;5078790;28;43782;-62
2022/08/15 03:15:30;;;;;;;5.53;5.13;;;26.30;64.30;;;;;;5080664;28;43814;-62
2022/08/15 03:18:01;;;;;;;5.40;5.00;;;26.30;64.30;;;;;;5072124;28;43435;-63
2022/08/15 03:20:29;;;;;;;5.03;4.72;;;26.30;64.30;;;;;;5090931;27;43511;-62
2022/08/15 03:22:59;;;;;;;5.95;5.45;;;26.30;64.40;;;;;;5082122;28;44799;-62
2022/08/15 03:25:32;;;;;;;5.68;5.28;;;26.30;64.40;;;;;;5083222;28;43694;-62
2022/08/15 03:28:19;;;;;;;5.45;5.05;;;26.30;64.40;;;;;;5099809;27;43450;-62
2022/08/15 03:30:59;;;;;;;5.80;5.40;;;26.30;64.40;;;;;;5082856;27;43571;-62
2022/08/15 03:33:28;;;;;;;5.50;5.10;;;26.30;64.40;;;;;;5086788;27;45001;-62
2022/08/15 03:36:19;;;;;;;6.10;5.60;;;26.30;64.40;;;;;;5081106;28;44016;-62
2022/08/15 03:38:51;;;;;;;5.85;5.38;;;26.30;64.40;;;;;;5070616;28;43451;-62
2022/08/15 03:41:25;;;;;;;5.70;5.30;;;26.30;64.40;;;;;;5076535;28;43503;-62
2022/08/15 03:43:55;;;;;;;5.43;5.03;;;26.30;64.40;;;;;;5082220;28;44058;-62
2022/08/15 03:46:23;;;;;;;5.43;4.97;;;26.30;64.50;;;;;;5081973;28;43963;-63
2022/08/15 03:48:56;;;;;;;5.57;5.18;;;26.30;64.40;;;;;;5081342;28;43483;-62
2022/08/15 03:51:30;;;;;;;5.70;5.30;;;26.20;64.40;;;;;;5082851;27;43460;-62
2022/08/15 03:54:03;;;;;;;5.85;5.45;;;26.20;64.40;;;;;;5080582;28;44333;-62
2022/08/15 03:56:33;;;;;;;5.20;4.88;;;26.20;64.40;;;;;;5071521;28;43530;-62
2022/08/15 03:59:09;;;;;;;5.45;5.05;;;26.20;64.40;;;;;;5076316;28;43475;-62
2022/08/15 04:01:42;;;;;;;5.60;5.20;;;26.20;64.40;;;;;;5082369;28;43478;-63
2022/08/15 04:04:14;;;;;;;5.90;5.50;;;26.20;64.40;;;;;;5095475;27;43796;-63
2022/08/15 04:06:48;;;;;;;5.95;5.45;;;26.20;64.40;;;;;;5081508;28;43703;-62
2022/08/15 04:09:31;;;;;;;5.55;5.15;;;26.20;64.40;;;;;;5075772;28;43459;-62
2022/08/15 04:11:59;;;;;;;5.85;5.45;;;26.20;64.40;;;;;;5081009;28;43428;-62
2022/08/15 04:14:35;;;;;;;5.20;4.90;;;26.20;64.40;;;;;;5062286;28;44699;-61
2022/08/15 04:17:10;;;;;;;5.50;5.10;;;26.20;64.40;;;;;;5094506;27;43673;-62
2022/08/15 04:19:52;;;;;;;5.45;5.07;;;26.20;64.40;;;;;;5073461;28;43585;-63
2022/08/15 04:22:42;;;;;;;5.60;5.10;;;26.20;64.40;;;;;;5081758;28;43510;-62
2022/08/15 04:25:32;;;;;;;5.88;5.47;;;26.10;64.40;;;;;;5070197;28;44156;-62
2022/08/15 04:28:22;;;;;;;5.60;5.20;;;26.10;64.40;;;;;;5072647;28;43664;-62
2022/08/15 04:31:19;;;;;;;5.57;5.18;;;26.20;65.10;;;;;;5081836;28;43494;-62
2022/08/15 04:33:49;;;;;;;5.95;5.55;;;26.10;64.40;;;;;;5081729;28;43526;-62
2022/08/15 04:36:38;;;;;;;5.53;5.13;;;26.10;64.40;;;;;;5081503;28;44645;-63
2022/08/15 04:39:07;;;;;;;5.78;5.38;;;26.10;64.40;;;;;;5076666;28;43702;-62
2022/08/15 04:41:52;;;;;;;5.68;5.28;;;26.10;64.40;;;;;;5081032;28;43437;-63
2022/08/15 04:44:21;;;;;;;5.80;5.40;;;26.10;64.50;;;;;;5076806;28;43407;-62
2022/08/15 04:46:56;;;;;;;5.78;5.38;;;26.10;64.40;;;;;;5081485;28;44711;-62
2022/08/15 04:49:24;;;;;;;5.78;5.38;;;26.10;64.40;;;;;;5079258;28;44003;-62
2022/08/15 04:51:53;;;;;;;5.93;5.53;;;26.10;64.40;;;;;;5082421;27;43423;-62
2022/08/15 04:54:22;;;;;;;5.90;5.50;;;26.10;64.40;;;;;;5074958;28;43507;-62
2022/08/15 04:57:19;;;;;;;5.68;5.28;;;26.10;64.40;;;;;;5073336;27;44874;-62
2022/08/15 04:59:49;;;;;;;5.47;5.07;;;26.10;64.40;;;;;;5080660;28;43498;-62
2022/08/15 05:03:08;;;;;;;5.50;5.10;;;26.10;64.50;;;;;;5070781;28;43456;-62
2022/08/15 05:05:49;;;;;;;6.00;5.60;;;26.00;64.40;;;;;;5079546;28;44085;-62
2022/08/15 05:08:27;;;;;;;5.85;5.45;;;26.00;64.40;;;;;;5067353;28;43847;-62
2022/08/15 05:11:14;;;;;;;6.18;5.78;;;26.00;64.40;;;;;;5079323;28;43328;-62
2022/08/15 05:13:45;;;;;;;5.40;5.07;;;26.00;64.40;;;;;;5095922;27;43434;-61
2022/08/15 05:16:22;;;;;;;5.47;5.07;;;26.00;64.40;;;;;;5079187;28;43423;-62
2022/08/15 05:19:04;;;;;;;6.10;5.70;;;26.00;64.40;;;;;;5080294;28;43868;-62
2022/08/15 05:21:34;;;;;;;6.07;5.68;;;26.00;64.40;;;;;;5080798;28;43971;-62
2022/08/15 05:24:10;;;;;;;5.95;5.50;;;26.00;64.40;;;;;;5080762;28;43474;-63
2022/08/15 05:26:39;;;;;;;6.38;5.93;;;26.00;64.40;;;;;;5080155;28;43479;-62
2022/08/15 05:29:27;;;;;;;6.28;5.78;;;26.00;64.40;;;;;;5080027;28;44178;-62
2022/08/15 05:31:55;;;;;;;6.72;6.22;;;26.00;65.10;;;;;;5083728;27;43502;-62
2022/08/15 05:34:23;;;;;;;5.85;5.40;;;26.00;64.40;;;;;;5064064;28;43305;-62
2022/08/15 05:37:07;;;;;;;5.40;5.00;;;26.00;64.50;;;;;;5070800;28;43504;-62
2022/08/15 05:39:37;;;;;;;5.50;5.05;;;26.00;64.50;;;;;;5076963;27;44995;-61
2022/08/15 05:42:15;;;;;;;5.90;5.50;;;25.90;64.40;;;;;;5076901;28;43554;-62
2022/08/15 05:45:32;;;;;;;5.82;5.43;;;26.00;64.40;;;;;;5086310;27;43483;-62
2022/08/15 05:48:20;;;;;;;5.70;5.30;;;25.90;64.50;;;;;;5073432;28;43503;-62
2022/08/15 05:51:25;;;;;;;5.97;5.57;;;25.90;64.60;;;;;;5095195;27;43982;-62
2022/08/15 05:54:22;;;;;;;6.00;5.60;;;25.90;64.60;;;;;;5093771;27;43634;-61
2022/08/15 05:57:17;;;;;;;6.03;5.63;;;25.90;64.60;;;;;;5054084;28;43476;-61
2022/08/15 05:59:52;;;;;;;5.80;5.40;;;25.90;64.70;;;;;;5076189;28;43558;-62
2022/08/15 06:02:33;;;;;;;5.60;5.20;;;25.90;64.70;;;;;;5072473;28;44663;-61
2022/08/15 06:05:36;;;;;;;6.32;5.72;;;25.90;64.70;;;;;;5089337;27;43466;-61
2022/08/15 06:08:12;;;;;;;6.80;6.30;;;25.90;64.70;;;;;;5077878;28;43451;-61
2022/08/15 06:11:11;;;;;;;5.80;5.40;;;25.90;64.80;;;;;;5074710;28;43461;-62
2022/08/15 06:13:46;;;;;;;6.50;6.00;;;25.90;64.80;;;;;;5081556;27;45016;-61
2022/08/15 06:16:23;;;;;;;6.50;6.00;;;25.90;64.80;;;;;;5075172;27;43877;-62
2022/08/15 06:19:24;;;;;;;5.90;5.50;;;25.90;64.70;;;;;;5089243;27;43485;-61
2022/08/15 06:22:27;;;;;;;6.15;5.72;;;25.90;64.80;;;;;;5099026;27;43476;-62
2022/08/15 06:25:20;;;;;;;6.15;5.72;;;25.90;64.80;;;;;;5082192;28;44804;-61
2022/08/15 06:28:33;;;;;;;5.90;5.50;;;25.90;64.90;;;;;;5082239;28;43427;-61
2022/08/15 06:31:40;;;;;;;6.22;5.72;;;25.90;64.90;;;;;;5076169;27;43426;-61
2022/08/15 06:34:20;;;;;;;5.75;5.35;;;25.90;64.80;;;;;;5071105;28;43539;-61
2022/08/15 06:37:21;;;;;;;5.82;5.43;;;25.90;64.90;;;;;;5076978;28;43867;-61
2022/08/15 06:40:12;;;;;;;6.20;5.70;;;25.90;64.90;;;;;;5076748;28;43533;-61
2022/08/15 06:42:55;;;;;;;5.90;5.50;;;25.90;64.90;;;;;;5079196;27;43514;-62
2022/08/15 06:45:48;;;;;;;6.30;5.90;;;25.90;65.00;;;;;;5078666;28;44188;-62
2022/08/15 06:48:21;;;;;;;6.00;5.60;;;25.90;65.00;;;;;;5075635;28;43896;-62
2022/08/15 06:51:11;;;;;;;6.18;5.65;;;25.90;65.00;;;;;;5076776;28;44829;-62
2022/08/15 06:53:53;;;;;;;5.75;5.28;;;25.90;65.00;;;;;;5077518;28;43713;-62
2022/08/15 06:56:33;;;;;;;6.20;5.70;;;25.90;65.00;;;;;;5078658;28;43540;-57
2022/08/15 06:59:10;;;;;;;5.88;5.47;;;25.80;64.90;;;;;;5075895;28;44049;-61
2022/08/15 07:02:18;;;;;;;6.03;5.60;;;25.90;65.00;;;;;;5074768;28;43431;-61
2022/08/15 07:05:22;;;;;;;6.20;5.70;;;25.90;65.00;;;;;;5016765;28;43538;-61
2022/08/15 07:08:17;;;;;;;5.30;4.95;;;25.90;65.00;;;;;;5071675;28;43570;-61
2022/08/15 07:10:55;;;;;;;5.70;5.30;;;25.80;64.90;;;;;;5076305;28;44076;-61
2022/08/15 07:14:14;;;;;;;5.72;5.22;;;25.80;64.90;;;;;;5092903;27;43751;-62
2022/08/15 07:17:12;;;;;;;6.05;5.55;;;25.80;64.90;;;;;;5076788;28;43487;-61
2022/08/15 07:19:45;;;;;;;6.05;5.55;;;25.80;65.00;;;;;;5078109;28;43701;-61
2022/08/15 07:22:43;;;;;;;5.35;4.95;;;25.90;65.00;;;;;;5075795;28;43985;-62
2022/08/15 07:25:19;;;;;;;5.95;5.55;;;25.80;64.90;;;;;;5076959;28;43648;-62
2022/08/15 07:28:01;;;;;;;5.53;5.13;;;25.90;65.00;;;;;;5077217;28;43495;-62
2022/08/15 07:30:57;;;;;;;5.88;5.38;;;25.80;64.90;;;;;;5078545;28;43464;-61
2022/08/15 07:33:30;;;;;;;5.97;5.57;;;25.90;64.80;;;;;;5083156;28;44259;-61
2022/08/15 07:36:15;;;;;;;5.80;5.38;;;25.90;64.80;;;;;;5075402;28;43354;-61
2022/08/15 07:39:25;;;;;;;6.07;5.57;;;25.90;64.70;;;;;;5077869;28;43502;-61
2022/08/15 07:42:21;;;;;;;6.28;5.78;;;25.90;64.70;;;;;;5082179;28;43515;-61
2022/08/15 07:45:31;;;;;;;5.97;5.57;;;25.90;64.70;;;;;;5059873;28;45066;-61
2022/08/15 07:48:22;;;;;;;6.38;5.85;;;25.90;64.70;;;;;;5090444;27;43577;-62
2022/08/15 07:51:22;;;;;;;6.07;5.57;;;25.90;64.70;;;;;;5092413;27;43488;-61
2022/08/15 07:54:05;;;;;;;6.18;5.70;;;25.90;64.70;;;;;;5078681;28;44056;-62
2022/08/15 07:56:54;;;;;;;6.50;5.90;;;25.90;64.70;;;;;;5069558;28;43916;-60
2022/08/15 07:59:25;;;;;;;6.18;5.78;;;25.90;64.50;;;;;;5081794;28;43890;-61
2022/08/15 08:02:31;;;;;;;6.45;5.95;;;25.90;64.70;;;;;;5082432;28;43975;-61
2022/08/15 08:05:09;;;;;;;6.43;5.93;;;25.90;64.60;;;;;;5071220;28;43573;-61
2022/08/15 08:07:42;;;;;;;5.88;5.47;;;25.90;64.50;;;;;;5098709;27;44042;-62
2022/08/15 08:10:27;;;;;;;6.57;6.07;;;25.90;64.60;;;;;;5077032;28;43728;-62
2022/08/15 08:13:22;;;;;;;6.30;5.80;;;25.90;65.20;;;;;;5082079;28;43786;-62
2022/08/15 08:16:07;;;;;;;6.60;6.10;;;25.90;64.50;;;;;;5080632;28;43553;-62
2022/08/15 08:18:41;;;;;;;6.32;5.82;;;25.90;64.50;;;;;;5087267;27;44806;-62
2022/08/15 08:21:17;;;;;;;6.65;6.05;;;25.90;64.50;;;;;;5075971;28;43478;-62
2022/08/15 08:24:04;;;;;;;6.28;5.80;;;25.90;64.50;;;;;;5078297;28;43470;-62
2022/08/15 08:27:13;;;;;;;6.50;6.00;;;26.00;64.50;;;;;;5076011;28;43491;-61
2022/08/15 08:30:00;;;;;;;7.00;6.40;;;26.00;64.60;;;;;;5072074;28;43602;-61
2022/08/15 08:32:58;;;;;;;6.35;5.90;;;26.00;64.50;;;;;;5085624;27;43410;-61
2022/08/15 08:35:54;;;;;;;6.20;5.80;;;26.00;64.50;;;;;;5083167;28;43396;-62
2022/08/15 08:38:35;;;;;;;6.70;6.20;;;26.00;64.40;;;;;;5082780;28;43393;-61
2022/08/15 08:41:36;;;;;;;6.75;6.25;;;26.00;64.40;;;;;;5082159;27;43867;-62
2022/08/15 08:44:42;;;;;;;6.35;5.85;;;26.00;64.40;;;;;;5082909;27;43465;-61
2022/08/15 08:47:16;;;;;;;6.35;5.95;;;26.00;64.40;;;;;;5082310;28;43488;-61
2022/08/15 08:50:16;;;;;;;7.10;6.47;;;26.00;64.40;;;;;;5082097;28;43628;-61
2022/08/15 08:53:11;;;;;;;6.53;6.03;;;26.00;64.30;;;;;;5082798;27;44734;-61
2022/08/15 08:56:06;;;;;;;6.32;5.82;;;26.00;64.30;;;;;;5082231;27;43685;-61
2022/08/15 08:59:16;;;;;;;6.68;6.10;;;26.00;64.30;;;;;;5082631;27;43390;-61
2022/08/15 09:01:50;;;;;;;6.70;6.13;;;26.10;64.30;;;;;;5067961;28;43493;-61
2022/08/15 09:04:23;;;;;;;6.85;6.35;;;26.10;64.30;;;;;;5083010;27;44100;-61
2022/08/15 09:06:53;;;;;;;6.18;5.68;;;26.10;64.20;;;;;;5082233;28;43986;-61
2022/08/15 09:09:43;;;;;;;6.53;6.10;;;26.10;64.20;;;;;;5081959;28;43437;-61
2022/08/15 09:15:17;;;;;;;6.30;5.90;;;26.10;64.10;;;;;;5076591;28;44828;-61
2022/08/15 09:17:51;;;;;;;6.38;5.88;;;26.10;64.70;;;;;;5081781;28;43973;-61
2022/08/15 09:20:35;;;;;;;6.50;6.00;;;26.10;64.10;;;;;;5081670;27;43478;-61
2022/08/15 09:23:14;;;;;;;6.47;5.97;;;26.10;64.00;;;;;;5075384;28;43407;-61
2022/08/15 09:25:48;;;;;;;6.68;6.18;;;26.10;63.90;;;;;;5072326;28;44792;-62
2022/08/15 09:28:33;;;;;;;6.30;5.80;;;26.20;64.00;;;;;;5082050;27;44152;-61
2022/08/15 09:31:11;;;;;;;6.55;6.05;;;26.10;64.60;;;;;;5076222;27;43466;-61
2022/08/15 09:33:52;;;;;;;6.18;5.72;;;26.20;64.10;;;;;;5073182;28;43491;-61
2022/08/15 09:36:46;;;;;;;7.05;6.45;;;26.10;63.90;;;;;;5081666;27;44684;-62
2022/08/15 09:39:29;;;;;;;6.63;6.03;;;26.20;64.10;;;;;;5082061;28;43711;-62
2022/08/15 09:42:27;;;;;;;6.45;5.95;;;26.20;64.10;;;;;;5082001;27;43471;-62
2022/08/15 09:45:34;;;;;;;7.28;6.65;;;26.20;64.10;;;;;;5081791;27;43422;-61
2022/08/15 09:48:12;;;;;;;6.45;5.97;;;26.20;64.60;;;;;;5082605;28;44976;-61
2022/08/15 09:50:54;;;;;;;5.93;5.53;;;26.20;64.30;;;;;;5083455;27;44070;-61
2022/08/15 09:53:40;;;;;;;6.53;6.03;;;26.20;64.30;;;;;;5085909;27;43409;-61
2022/08/15 09:56:21;;;;;;;6.32;5.82;;;26.20;64.20;;;;;;5081841;28;43525;-61
2022/08/15 09:58:59;;;;;;;6.85;6.32;;;26.20;64.30;;;;;;5085015;27;44814;-61
2022/08/15 10:01:29;;;;;;;6.60;6.00;;;26.20;64.30;;;;;;5085041;27;43959;-61
2022/08/15 10:04:11;;;;;;;6.43;6.00;;;26.20;64.30;;;;;;5084947;27;43520;-61
2022/08/15 10:07:11;;;;;;;6.35;5.78;;;26.30;64.30;;;;;;5085242;28;43400;-61
2022/08/15 10:10:05;;;;;;;6.40;5.80;;;26.30;64.20;;;;;;5053286;27;43813;-61
2022/08/15 10:12:37;;;;;;;6.22;5.72;;;26.30;64.20;;;;;;5073441;28;43779;-61
2022/08/15 10:15:43;;;;;;;6.60;6.00;;;26.30;64.10;;;;;;5084164;28;43475;-61
2022/08/15 10:18:22;;;;;;;6.70;6.20;;;26.30;64.10;;;;;;5071884;28;43582;-61
2022/08/15 10:20:54;;;;;;;6.18;5.68;;;26.30;64.10;;;;;;5084884;27;43931;-61
2022/08/15 10:23:36;;;;;;;6.35;5.85;;;26.30;64.10;;;;;;5084875;28;43948;-61
2022/08/15 10:26:32;;;;;;;6.30;5.72;;;26.30;64.10;;;;;;5077622;28;43979;-61
2022/08/15 10:29:11;;;;;;;5.95;5.55;;;26.30;64.00;;;;;;5078789;28;43465;-61
2022/08/15 10:31:51;;;;;;;5.63;5.18;;;26.40;64.10;;;;;;5087559;27;44961;-61
2022/08/15 10:35:03;;;;;;;6.50;5.90;;;26.30;64.00;;;;;;5084743;27;43397;-61
2022/08/15 10:37:51;;;;;;;5.82;5.43;;;26.30;64.00;;;;;;5084756;28;43401;-61
2022/08/15 10:40:49;;;;;;;6.57;5.97;;;26.40;64.10;;;;;;5073540;27;43635;-61
2022/08/15 10:43:46;;;;;;;6.13;5.63;;;26.40;64.00;;;;;;5082899;28;44791;-62
2022/08/15 10:46:43;;;;;;;5.68;5.18;;;26.40;64.00;;;;;;5082067;27;43312;-62
2022/08/15 10:49:40;;;;;;;6.07;5.57;;;26.40;64.10;;;;;;5081358;28;43462;-62
2022/08/15 10:52:18;;;;;;;6.10;5.50;;;26.50;64.00;;;;;;5047954;27;43492;-62
2022/08/15 10:55:23;;;;;;;6.45;5.95;;;26.50;64.00;;;;;;5083029;28;44051;-62
2022/08/15 10:58:23;;;;;;;6.30;5.72;;;26.50;63.90;;;;;;5074092;28;43684;-62
2022/08/15 11:01:07;;;;;;;5.60;5.20;;;26.50;63.90;;;;;;5081453;27;43527;-62
2022/08/15 11:04:25;;;;;;;5.40;5.00;;;26.50;63.90;;;;;;5084200;27;43445;-62
2022/08/15 11:07:28;;;;;;;5.70;5.30;;;26.50;64.70;;;;;;5037068;28;45336;-62
2022/08/15 11:09:59;;;;;;;5.70;5.30;;;26.50;64.00;;;;;;5040499;28;43990;-62
2022/08/15 11:12:34;;;;;;;5.68;5.28;;;26.50;64.10;;;;;;5072170;28;43401;-62
2022/08/15 11:15:23;;;;;;;5.88;5.38;;;26.50;64.10;;;;;;5078022;28;43636;-61
2022/08/15 11:18:04;;;;;;;5.65;5.15;;;26.50;64.00;;;;;;5098160;27;44946;-61
2022/08/15 11:20:52;;;;;;;6.00;5.38;;;26.60;64.10;;;;;;5082968;28;43537;-62
2022/08/15 11:23:52;;;;;;;6.10;5.60;;;26.60;64.10;;;;;;5077515;28;43499;-62
2022/08/15 11:26:28;;;;;;;5.65;5.25;;;26.60;64.10;;;;;;5074748;28;43492;-62
2022/08/15 11:29:15;;;;;;;5.63;5.22;;;26.60;64.10;;;;;;5076363;28;45145;-62
2022/08/15 11:31:58;;;;;;;5.90;5.40;;;26.60;64.10;;;;;;5086676;27;43432;-62
2022/08/15 11:34:38;;;;;;;5.70;5.30;;;26.60;64.10;;;;;;5082975;27;43389;-62
2022/08/15 11:37:10;;;;;;;5.55;5.10;;;26.60;64.10;;;;;;5082759;27;43443;-62
2022/08/15 11:40:04;;;;;;;5.40;5.00;;;26.60;64.10;;;;;;5080888;28;44793;-62
2022/08/15 11:42:40;;;;;;;5.32;4.93;;;26.70;64.20;;;;;;5076514;28;43448;-62
2022/08/15 11:45:34;;;;;;;5.45;5.00;;;26.70;64.10;;;;;;5083249;27;43393;-64
2022/08/15 11:48:34;;;;;;;5.35;4.95;;;26.70;64.60;;;;;;5081567;27;43559;-64
2022/08/15 11:51:21;;;;;;;5.40;5.00;;;26.70;64.10;;;;;;5081723;27;44639;-67
2022/08/15 11:54:18;;;;;;;6.30;5.53;;;26.70;64.10;;;;;;5082667;28;44079;-64
2022/08/15 11:57:05;;;;;;;5.78;5.20;;;26.70;64.10;;;;;;5075077;28;43354;-66
2022/08/15 12:00:10;;;;;;;6.65;5.53;;;26.80;64.30;;;;;;5080312;28;43538;-66
2022/08/15 12:02:47;;;;;;;5.60;5.20;;;26.80;64.40;;;;;;5082818;28;45339;-66
2022/08/15 12:05:35;;;;;;;6.40;5.63;;;26.80;64.20;;;;;;5079236;27;44053;-67
2022/08/15 12:08:27;;;;;;;5.90;5.40;;;26.80;63.90;;;;;;5080405;28;43437;-66
2022/08/15 12:11:14;;;;;;;7.53;5.40;;;26.80;64.00;;;;;;5082427;28;43407;-64
2022/08/15 12:13:56;;;;;;;6.68;5.47;;;26.80;64.10;;;;;;5081361;27;45027;-64
2022/08/15 12:16:43;;;;;;;5.70;5.20;;;26.80;64.10;;;;;;5082695;27;43479;-65
2022/08/15 12:19:29;;;;;;;5.93;5.35;;;26.80;64.10;;;;;;5081078;27;43421;-64
2022/08/15 12:22:00;;;;;;;6.00;5.50;;;26.80;64.00;;;;;;5083363;27;43422;-64
2022/08/15 12:24:48;;;;;;;6.30;5.80;;;26.80;64.10;;;;;;5081446;27;43848;-64
2022/08/15 12:27:15;;;;;;;6.35;5.85;;;26.80;64.20;;;;;;5078543;28;43984;-65
2022/08/15 12:29:44;;;;;;;6.78;6.25;;;26.80;64.10;;;;;;5080698;28;43457;-64
2022/08/15 12:32:17;;;;;;;6.03;5.45;;;26.80;64.20;;;;;;5078280;27;43508;-65
2022/08/15 12:35:06;;;;;;;6.60;6.10;;;26.80;64.10;;;;;;5079481;28;45004;-65
2022/08/15 12:37:53;;;;;;;6.70;6.10;;;26.90;64.20;;;;;;5073268;28;44714;-64
2022/08/15 12:40:22;;;;;;;6.38;5.85;;;26.90;64.20;;;;;;5081060;28;43477;-65
2022/08/15 12:43:10;;;;;;;6.10;5.60;;;26.90;64.10;;;;;;5082320;27;43514;-65
2022/08/15 12:45:44;;;;;;;6.38;5.78;;;26.90;64.10;;;;;;5080912;28;44040;-64
2022/08/15 12:48:29;;;;;;;6.07;5.57;;;26.90;64.10;;;;;;5081462;27;43417;-65
2022/08/15 12:51:04;;;;;;;6.78;6.20;;;26.90;64.10;;;;;;5078436;28;43541;-64
2022/08/15 12:53:32;;;;;;;6.80;6.30;;;26.90;64.10;;;;;;5081935;28;43455;-64
2022/08/15 12:56:00;;;;;;;6.45;5.90;;;26.90;64.20;;;;;;5080728;27;43786;-65
2022/08/15 12:58:28;;;;;;;6.65;6.10;;;26.90;64.30;;;;;;5081398;27;43560;-65
2022/08/15 13:00:57;;;;;;;6.80;6.30;;;26.90;64.30;;;;;;5080900;28;43524;-65
2022/08/15 13:03:42;;;;;;;6.45;5.95;;;26.90;64.30;;;;;;5081521;27;43443;-64
2022/08/15 13:06:54;;;;;;;7.22;6.57;;;26.90;64.50;;;;;;5081083;27;43792;-64
2022/08/15 13:09:25;;;;;;;6.55;5.95;;;26.90;64.50;;;;;;5077795;28;44166;-64
2022/08/15 13:11:55;;;;;;;6.50;5.90;;;26.90;64.50;;;;;;5081391;27;43431;-65
2022/08/15 13:14:23;;;;;;;6.50;6.00;;;26.90;64.40;;;;;;5079044;28;43525;-65
2022/08/15 13:16:53;;;;;;;6.82;6.22;;;26.90;64.30;;;;;;5076247;28;44957;-65
2022/08/15 13:25:35;;;;;;;6.35;5.80;;;26.90;64.40;;;;;;5035698;28;43967;-64
2022/08/15 13:28:08;;;;;;;6.30;5.70;;;26.90;64.30;;;;;;5038889;28;43422;-65
2022/08/15 13:30:37;;;;;;;6.40;5.80;;;26.90;64.40;;;;;;5037280;28;43652;-65
2022/08/15 13:33:09;;;;;;;6.47;5.93;;;26.90;64.20;;;;;;5040629;28;43799;-64
2022/08/15 13:35:36;;;;;;;6.45;5.90;;;26.90;64.40;;;;;;5039710;28;43431;-66
2022/08/15 13:38:28;;;;;;;5.97;5.47;;;26.90;64.30;;;;;;5027923;28;43439;-66
2022/08/15 13:40:59;;;;;;;6.70;6.20;;;26.90;64.40;;;;;;5034718;28;43578;-66
2022/08/15 13:43:30;;;;;;;6.50;5.90;;;26.90;64.30;;;;;;5038142;28;44859;-67
2022/08/15 13:46:21;;;;;;;6.10;5.63;;;26.90;64.40;;;;;;5038579;28;43453;-66
2022/08/15 13:48:59;;;;;;;7.22;6.63;;;26.90;64.40;;;;;;5035097;28;43420;-65
2022/08/15 13:51:45;;;;;;;6.45;5.95;;;26.90;64.40;;;;;;5032752;28;43564;-65
2022/08/15 13:54:33;;;;;;;6.38;5.88;;;26.90;64.40;;;;;;5035480;28;43854;-66
2022/08/15 13:57:19;;;;;;;6.80;6.30;;;26.90;64.60;;;;;;5026420;28;43508;-65
2022/08/15 13:59:54;;;;;;;7.20;6.65;;;26.90;64.50;;;;;;5032123;28;43458;-66
2022/08/15 14:02:25;;;;;;;6.43;5.90;;;27.00;64.60;;;;;;5034593;28;43645;-65
2022/08/15 14:05:05;;;;;;;6.97;6.47;;;27.00;64.60;;;;;;5035220;28;44059;-66
2022/08/15 14:07:35;;;;;;;6.50;6.00;;;27.00;64.60;;;;;;5034551;28;43849;-66
2022/08/15 14:10:25;;;;;;;6.63;6.13;;;27.00;64.50;;;;;;5034544;28;43580;-65
2022/08/15 14:13:14;;;;;;;6.68;6.07;;;27.00;64.40;;;;;;5035931;28;43571;-65
2022/08/15 14:15:53;;;;;;;6.72;6.20;;;27.00;64.50;;;;;;5034705;28;43938;-66
2022/08/15 14:18:42;;;;;;;6.82;6.30;;;27.10;65.10;;;;;;5035618;28;43478;-65